Time;durP1;ratioP1;P1;durP2;ratioP2;P2;SDS_P1;SDS_P2;PMS_P1;PMS_P2;Temp;Humidity;BMP_temperature;BMP_pressure;BME280_temperature;BME280_humidity;BME280_pressure;Samples;Min_cycle;Max_cycle;Signal;HPM_P1;HPM_P2
2022/07/26 00:01:28;;;;;;;4.28;2.75;;;21.60;99.90;;;;;;5082333;28;20028;-75
2022/07/26 00:03:54;;;;;;;8.30;3.17;;;21.50;99.90;;;;;;5078006;28;20024;-75
2022/07/26 00:06:20;;;;;;;7.00;2.40;;;21.50;99.90;;;;;;5077251;28;20029;-75
2022/07/26 00:08:47;;;;;;;6.93;2.35;;;21.50;99.90;;;;;;5082864;28;20496;-75
2022/07/26 00:11:13;;;;;;;6.13;3.00;;;21.50;99.90;;;;;;5078679;28;20021;-75
2022/07/26 00:13:39;;;;;;;4.63;2.22;;;21.50;99.90;;;;;;5081521;28;20035;-74
2022/07/26 00:16:05;;;;;;;6.43;2.35;;;21.40;99.90;;;;;;5076359;28;20095;-75
2022/07/26 00:18:31;;;;;;;6.68;2.67;;;21.40;99.90;;;;;;5077468;28;20489;-75
2022/07/26 00:20:57;;;;;;;4.75;2.80;;;21.40;99.90;;;;;;5083779;28;20400;-75
2022/07/26 00:23:23;;;;;;;6.45;2.28;;;21.30;99.90;;;;;;5082652;28;20038;-75
2022/07/26 00:25:49;;;;;;;6.05;2.45;;;21.30;99.90;;;;;;5084768;28;20074;-74
2022/07/26 00:28:15;;;;;;;3.83;2.55;;;21.30;99.90;;;;;;5086230;28;20033;-75
2022/07/26 00:30:41;;;;;;;5.45;2.72;;;21.20;99.90;;;;;;5082751;28;20048;-75
2022/07/26 00:33:06;;;;;;;7.28;2.50;;;21.20;99.90;;;;;;5083666;28;20038;-75
2022/07/26 00:35:32;;;;;;;6.13;2.60;;;21.20;99.90;;;;;;5079515;28;20025;-74
2022/07/26 00:37:59;;;;;;;6.35;2.42;;;21.20;99.90;;;;;;5080312;28;20032;-75
2022/07/26 00:40:25;;;;;;;5.10;2.80;;;21.10;99.90;;;;;;5084198;28;20493;-75
2022/07/26 00:42:50;;;;;;;6.43;2.60;;;21.20;99.90;;;;;;5078455;28;20097;-74
2022/07/26 00:45:17;;;;;;;9.85;2.92;;;21.20;99.90;;;;;;5088420;28;20488;-75
2022/07/26 00:47:43;;;;;;;6.15;3.00;;;21.10;99.90;;;;;;5085371;28;20093;-75
2022/07/26 00:50:13;;;;;;;6.78;3.53;;;21.10;99.90;;;;;;5083799;28;20039;-75
2022/07/26 00:52:41;;;;;;;8.68;3.17;;;21.10;99.90;;;;;;5082871;28;21401;-75
2022/07/26 00:55:07;;;;;;;7.82;3.80;;;21.00;99.90;;;;;;5083693;28;20499;-75
2022/07/26 00:57:34;;;;;;;6.75;3.22;;;21.10;99.90;;;;;;5082689;28;20514;-75
2022/07/26 01:00:05;;;;;;;5.13;3.00;;;21.10;99.90;;;;;;5080755;28;20021;-74
2022/07/26 01:02:31;;;;;;;9.25;3.20;;;21.10;99.90;;;;;;5083191;28;20122;-75
2022/07/26 01:04:57;;;;;;;4.65;3.03;;;21.00;99.90;;;;;;5080851;28;20043;-75
2022/07/26 01:07:23;;;;;;;5.97;3.05;;;21.00;99.90;;;;;;5082789;28;20021;-74
2022/07/26 01:09:49;;;;;;;12.60;3.28;;;20.90;99.90;;;;;;5080297;28;20032;-75
2022/07/26 01:12:15;;;;;;;6.65;3.03;;;20.90;99.90;;;;;;5082607;28;20044;-72
2022/07/26 01:14:43;;;;;;;8.63;2.97;;;20.90;99.90;;;;;;5081337;28;20519;-72
2022/07/26 01:17:10;;;;;;;5.97;2.90;;;20.90;99.90;;;;;;5085928;28;20080;-72
2022/07/26 01:19:36;;;;;;;4.65;3.00;;;20.90;99.90;;;;;;5087133;28;20028;-72
2022/07/26 01:22:01;;;;;;;7.13;3.03;;;20.80;99.90;;;;;;5081313;28;20032;-71
2022/07/26 01:24:27;;;;;;;8.38;3.22;;;20.70;99.90;;;;;;5077791;28;20413;-72
2022/07/26 01:26:56;;;;;;;9.05;3.45;;;20.80;99.90;;;;;;5077688;28;20077;-71
2022/07/26 01:29:23;;;;;;;7.45;3.60;;;20.80;99.90;;;;;;5078267;28;20033;-72
2022/07/26 01:31:49;;;;;;;5.85;3.15;;;20.70;99.90;;;;;;5093692;28;20476;-72
2022/07/26 01:34:15;;;;;;;7.90;3.67;;;20.70;99.90;;;;;;5084450;28;20028;-72
2022/07/26 01:36:41;;;;;;;7.40;3.72;;;20.70;99.90;;;;;;5085000;28;20060;-73
2022/07/26 01:39:07;;;;;;;9.27;3.72;;;20.70;99.90;;;;;;5079108;28;20530;-73
2022/07/26 01:41:34;;;;;;;10.00;3.95;;;20.70;99.90;;;;;;5087128;28;20372;-73
2022/07/26 01:44:00;;;;;;;10.55;3.75;;;20.60;99.90;;;;;;5078876;28;20024;-72
2022/07/26 01:46:25;;;;;;;7.05;3.40;;;20.60;99.90;;;;;;5078672;28;20042;-74
2022/07/26 01:48:51;;;;;;;6.57;3.10;;;20.60;99.90;;;;;;5081985;28;20029;-72
2022/07/26 01:51:17;;;;;;;7.32;4.32;;;20.60;99.90;;;;;;5077551;28;20128;-72
2022/07/26 01:53:46;;;;;;;9.90;3.85;;;20.60;99.90;;;;;;5079290;28;20009;-72
2022/07/26 01:56:13;;;;;;;9.00;3.72;;;20.60;99.90;;;;;;5083906;28;20127;-72
2022/07/26 01:58:39;;;;;;;13.20;4.00;;;20.60;99.90;;;;;;5084015;28;20051;-72
2022/07/26 02:01:06;;;;;;;7.88;3.75;;;20.60;99.90;;;;;;5082073;28;20024;-72
2022/07/26 02:03:32;;;;;;;8.85;3.42;;;20.50;99.90;;;;;;5080523;28;20021;-72
2022/07/26 02:05:58;;;;;;;7.88;3.33;;;20.50;99.90;;;;;;5080090;28;20028;-72
2022/07/26 02:08:23;;;;;;;7.25;4.05;;;20.50;99.90;;;;;;5079727;28;21459;-73
2022/07/26 02:11:00;;;;;;;8.52;3.83;;;20.50;99.90;;;;;;5090036;28;20088;-73
2022/07/26 02:13:32;;;;;;;6.18;3.00;;;20.50;99.90;;;;;;5078862;28;20046;-73
2022/07/26 02:15:58;;;;;;;8.82;4.00;;;20.50;99.90;;;;;;5088717;28;20579;-73
2022/07/26 02:18:25;;;;;;;10.68;3.80;;;20.50;99.90;;;;;;5081611;28;20046;-73
2022/07/26 02:20:51;;;;;;;10.15;4.07;;;20.50;99.90;;;;;;5077750;28;20055;-72
2022/07/26 02:23:17;;;;;;;10.90;3.75;;;20.40;99.90;;;;;;5080492;28;20016;-73
2022/07/26 02:25:43;;;;;;;6.50;2.70;;;20.40;99.90;;;;;;5087242;28;20115;-73
2022/07/26 02:28:09;;;;;;;11.88;3.58;;;20.40;99.90;;;;;;5077370;28;20992;-73
2022/07/26 02:30:35;;;;;;;8.15;3.90;;;20.40;99.90;;;;;;5083919;28;20027;-72
2022/07/26 02:33:00;;;;;;;10.43;3.90;;;20.40;99.90;;;;;;5084924;28;20058;-73
2022/07/26 02:35:26;;;;;;;9.15;3.40;;;20.40;99.90;;;;;;5080580;28;20677;-73
2022/07/26 02:37:52;;;;;;;7.97;3.88;;;20.40;99.90;;;;;;5085893;28;20093;-72
2022/07/26 02:40:18;;;;;;;7.97;3.80;;;20.30;99.90;;;;;;5076800;28;20028;-72
2022/07/26 02:42:47;;;;;;;12.57;3.97;;;20.30;99.90;;;;;;5092967;28;20020;-72
2022/07/26 02:45:14;;;;;;;6.65;3.00;;;20.30;99.90;;;;;;5083011;28;20035;-72
2022/07/26 02:47:51;;;;;;;7.55;3.58;;;20.30;99.90;;;;;;5079333;28;20492;-72
2022/07/26 02:50:19;;;;;;;14.32;4.65;;;20.30;99.90;;;;;;5081522;28;20433;-73
2022/07/26 02:52:48;;;;;;;9.52;3.30;;;20.30;99.90;;;;;;5077719;28;20036;-73
2022/07/26 02:55:15;;;;;;;8.05;3.88;;;20.30;99.90;;;;;;5078906;28;20086;-72
2022/07/26 02:57:41;;;;;;;9.73;3.55;;;20.30;99.90;;;;;;5075671;28;20032;-72
2022/07/26 03:00:09;;;;;;;9.20;3.30;;;20.30;99.90;;;;;;5077235;28;20097;-72
2022/07/26 03:02:35;;;;;;;11.10;3.63;;;20.20;99.90;;;;;;5079907;28;20023;-72
2022/07/26 03:05:02;;;;;;;7.53;3.25;;;20.20;99.90;;;;;;5077029;28;20675;-72
2022/07/26 03:07:28;;;;;;;7.95;3.63;;;20.10;99.90;;;;;;5077884;28;20024;-72
2022/07/26 03:09:54;;;;;;;5.53;3.03;;;20.10;99.90;;;;;;5077370;28;20035;-72
2022/07/26 03:12:20;;;;;;;10.38;3.38;;;20.00;99.90;;;;;;5085677;28;20573;-73
2022/07/26 03:14:46;;;;;;;7.50;3.38;;;20.00;99.90;;;;;;5075922;28;20082;-73
2022/07/26 03:17:11;;;;;;;7.93;3.90;;;20.00;99.90;;;;;;5093433;28;20052;-73
2022/07/26 03:19:37;;;;;;;9.45;3.38;;;19.90;99.90;;;;;;5077289;28;20082;-73
2022/07/26 03:22:03;;;;;;;8.98;3.38;;;19.90;99.90;;;;;;5074664;28;20028;-73
2022/07/26 03:24:29;;;;;;;8.00;3.70;;;19.90;99.90;;;;;;5078356;28;20095;-73
2022/07/26 03:26:55;;;;;;;13.23;3.78;;;19.80;99.90;;;;;;5076455;28;20099;-72
2022/07/26 03:29:21;;;;;;;8.85;3.40;;;19.80;99.90;;;;;;5076115;28;20036;-73
2022/07/26 03:31:47;;;;;;;14.15;3.88;;;19.80;99.90;;;;;;5074925;28;20119;-73
2022/07/26 03:34:13;;;;;;;9.10;4.18;;;19.80;99.90;;;;;;5093089;28;20024;-72
2022/07/26 03:36:39;;;;;;;9.80;3.75;;;19.70;99.90;;;;;;5088053;28;20123;-73
2022/07/26 03:39:05;;;;;;;7.22;3.40;;;19.70;99.90;;;;;;5076978;28;20017;-73
2022/07/26 03:41:30;;;;;;;7.00;3.67;;;19.70;99.90;;;;;;5083030;28;20028;-73
2022/07/26 03:43:56;;;;;;;15.30;3.78;;;19.60;99.90;;;;;;5081066;28;20012;-72
2022/07/26 03:46:23;;;;;;;8.55;3.33;;;19.60;99.90;;;;;;5078040;28;20032;-73
2022/07/26 03:48:48;;;;;;;10.15;3.30;;;19.50;99.90;;;;;;5076394;28;20439;-73
2022/07/26 03:51:14;;;;;;;6.75;4.13;;;19.50;99.90;;;;;;5079053;28;20048;-72
2022/07/26 03:53:40;;;;;;;11.88;4.25;;;19.50;99.90;;;;;;5075737;28;20025;-73
2022/07/26 03:58:50;;;;;;;12.65;4.10;;;19.40;99.90;;;;;;5080661;28;20082;-72
2022/07/26 04:01:16;;;;;;;13.68;3.72;;;19.40;99.90;;;;;;5077656;28;20029;-73
2022/07/26 04:03:42;;;;;;;7.82;3.42;;;19.40;99.90;;;;;;5076671;28;20013;-73
2022/07/26 04:06:09;;;;;;;10.30;3.95;;;19.30;99.90;;;;;;5079950;28;20381;-73
2022/07/26 04:08:35;;;;;;;7.50;3.20;;;19.30;99.90;;;;;;5079849;28;20020;-72
2022/07/26 04:11:01;;;;;;;11.02;4.40;;;19.20;99.90;;;;;;5077838;28;20029;-72
2022/07/26 04:13:27;;;;;;;10.35;3.28;;;19.10;99.90;;;;;;5078359;28;20039;-73
2022/07/26 04:15:53;;;;;;;10.68;3.92;;;19.00;99.90;;;;;;5077093;28;20104;-73
2022/07/26 04:18:19;;;;;;;11.55;4.22;;;19.00;99.90;;;;;;5076803;28;20088;-73
2022/07/26 04:20:45;;;;;;;13.40;3.65;;;19.00;99.90;;;;;;5079184;28;20035;-73
2022/07/26 04:23:11;;;;;;;7.85;3.20;;;19.00;99.90;;;;;;5075586;28;20032;-73
2022/07/26 04:25:37;;;;;;;8.85;3.88;;;18.90;99.90;;;;;;5075502;28;20028;-73
2022/07/26 04:28:03;;;;;;;9.65;4.15;;;18.90;99.90;;;;;;5077803;28;20028;-72
2022/07/26 04:30:29;;;;;;;9.00;3.97;;;18.90;99.90;;;;;;5084919;28;20048;-72
2022/07/26 04:32:55;;;;;;;7.15;3.38;;;18.80;99.90;;;;;;5078142;28;20036;-73
2022/07/26 04:35:21;;;;;;;10.35;4.43;;;18.70;99.90;;;;;;5081445;28;20025;-72
2022/07/26 04:37:47;;;;;;;10.20;4.25;;;18.70;99.90;;;;;;5074998;28;20081;-73
2022/07/26 04:40:18;;;;;;;10.95;4.05;;;18.60;99.90;;;;;;5077874;28;20029;-73
2022/07/26 04:42:44;;;;;;;11.20;3.70;;;18.60;99.90;;;;;;5079479;28;20036;-71
2022/07/26 04:45:11;;;;;;;13.40;3.80;;;18.60;99.90;;;;;;5077271;28;20027;-72
2022/07/26 04:47:40;;;;;;;9.95;3.83;;;18.60;99.90;;;;;;5088748;28;20500;-73
2022/07/26 04:50:07;;;;;;;9.98;4.22;;;18.60;99.90;;;;;;5075583;28;20020;-72
2022/07/26 04:52:32;;;;;;;9.75;3.60;;;18.60;99.90;;;;;;5075941;28;20040;-72
2022/07/26 04:54:58;;;;;;;10.55;4.18;;;18.50;99.90;;;;;;5076479;28;20025;-73
2022/07/26 04:57:24;;;;;;;12.95;3.58;;;18.50;99.90;;;;;;5074263;28;20035;-73
2022/07/26 04:59:50;;;;;;;14.00;3.97;;;18.50;99.90;;;;;;5076438;28;20082;-72
2022/07/26 05:02:17;;;;;;;4.80;3.35;;;18.50;99.90;;;;;;5077141;28;20035;-73
2022/07/26 05:04:43;;;;;;;11.48;4.10;;;18.50;99.90;;;;;;5076774;28;20137;-73
2022/07/26 05:07:09;;;;;;;13.20;4.47;;;18.50;99.90;;;;;;5091608;28;20091;-72
2022/07/26 05:09:35;;;;;;;13.65;3.78;;;18.50;99.90;;;;;;5090779;28;20016;-73
2022/07/26 05:12:01;;;;;;;11.77;4.45;;;18.60;99.90;;;;;;5083834;28;20390;-72
2022/07/26 05:14:27;;;;;;;16.55;4.32;;;18.70;99.90;;;;;;5091202;28;20029;-73
2022/07/26 05:16:53;;;;;;;10.32;4.05;;;18.80;99.90;;;;;;5079363;28;20021;-72
2022/07/26 05:19:19;;;;;;;6.00;3.90;;;18.90;99.90;;;;;;5087141;28;20388;-73
2022/07/26 05:21:45;;;;;;;7.57;3.75;;;18.90;99.90;;;;;;5081082;28;20056;-73
2022/07/26 05:24:11;;;;;;;13.35;4.30;;;18.90;99.90;;;;;;5082363;28;20020;-73
2022/07/26 05:26:36;;;;;;;10.05;4.38;;;18.90;99.90;;;;;;5088010;28;20036;-73
2022/07/26 05:29:02;;;;;;;13.07;3.70;;;19.00;99.90;;;;;;5078256;28;20060;-72
2022/07/26 05:31:28;;;;;;;9.40;4.10;;;19.10;99.90;;;;;;5082345;28;20024;-73
2022/07/26 05:33:54;;;;;;;12.73;3.20;;;19.10;99.90;;;;;;5086326;28;20558;-73
2022/07/26 05:36:20;;;;;;;9.65;3.88;;;19.00;99.90;;;;;;5084484;28;20047;-73
2022/07/26 05:38:46;;;;;;;6.65;3.38;;;19.00;99.90;;;;;;5080325;28;20029;-73
2022/07/26 05:41:12;;;;;;;13.40;3.80;;;19.00;99.90;;;;;;5087831;28;20023;-73
2022/07/26 05:43:38;;;;;;;9.90;3.78;;;19.00;99.90;;;;;;5079722;28;20040;-73
2022/07/26 05:46:04;;;;;;;9.80;3.33;;;19.10;99.90;;;;;;5092059;28;20520;-73
2022/07/26 05:48:30;;;;;;;14.52;3.92;;;19.20;99.90;;;;;;5094488;28;20055;-72
2022/07/26 05:50:56;;;;;;;6.32;3.30;;;19.30;99.90;;;;;;5082565;28;20138;-72
2022/07/26 05:53:22;;;;;;;7.05;2.83;;;19.30;99.90;;;;;;5080921;28;20440;-72
2022/07/26 05:55:47;;;;;;;8.30;3.10;;;19.50;99.90;;;;;;5080546;28;20020;-76
2022/07/26 05:58:13;;;;;;;7.15;3.05;;;19.60;99.90;;;;;;5079935;28;20488;-76
2022/07/26 06:00:39;;;;;;;13.27;3.95;;;19.70;99.90;;;;;;5079068;28;20031;-76
2022/07/26 06:03:23;;;;;;;7.53;2.80;;;19.80;99.90;;;;;;5082076;28;20148;-74
2022/07/26 06:05:51;;;;;;;12.52;2.75;;;20.10;99.90;;;;;;5076340;28;20082;-73
2022/07/26 06:08:18;;;;;;;10.27;3.22;;;20.20;99.90;;;;;;5081410;28;20548;-75
2022/07/26 06:10:44;;;;;;;6.70;3.20;;;19.90;99.90;;;;;;5078356;28;20503;-74
2022/07/26 06:13:10;;;;;;;13.25;3.75;;;19.90;99.90;;;;;;5081743;28;20021;-74
2022/07/26 06:15:37;;;;;;;7.40;3.42;;;19.90;99.90;;;;;;5076080;28;20020;-75
2022/07/26 06:18:04;;;;;;;9.40;3.20;;;19.90;99.90;;;;;;5089073;28;20032;-73
2022/07/26 06:20:30;;;;;;;11.32;3.80;;;19.80;99.90;;;;;;5080338;28;20029;-75
2022/07/26 06:22:57;;;;;;;9.48;3.20;;;19.80;99.90;;;;;;5077456;28;20017;-75
2022/07/26 06:25:26;;;;;;;11.93;3.28;;;19.80;99.90;;;;;;5089874;28;20020;-75
2022/07/26 06:27:52;;;;;;;13.25;3.03;;;19.70;99.90;;;;;;5077629;28;20060;-75
2022/07/26 06:30:18;;;;;;;8.05;3.47;;;19.70;99.90;;;;;;5076268;28;20043;-75
2022/07/26 06:32:44;;;;;;;8.32;3.53;;;19.70;99.90;;;;;;5076201;28;20027;-75
2022/07/26 06:35:11;;;;;;;9.77;3.45;;;19.80;99.90;;;;;;5077395;28;20555;-75
2022/07/26 06:37:38;;;;;;;13.23;3.40;;;19.80;99.90;;;;;;5077260;28;20024;-75
2022/07/26 06:40:06;;;;;;;11.48;3.47;;;19.90;99.90;;;;;;5087925;28;20097;-76
2022/07/26 06:42:33;;;;;;;9.25;3.17;;;20.10;99.90;;;;;;5078018;28;20016;-76
2022/07/26 06:44:59;;;;;;;9.32;3.13;;;20.20;99.90;;;;;;5080507;28;20032;-74
2022/07/26 06:47:26;;;;;;;6.03;2.53;;;20.10;99.90;;;;;;5092720;28;20027;-74
2022/07/26 06:49:52;;;;;;;10.90;2.88;;;20.00;99.90;;;;;;5085887;28;20036;-74
2022/07/26 06:52:18;;;;;;;6.53;2.30;;;20.00;99.90;;;;;;5079000;28;20036;-73
2022/07/26 06:54:44;;;;;;;7.65;2.60;;;20.00;99.90;;;;;;5083614;28;20024;-74
2022/07/26 06:57:10;;;;;;;10.50;3.65;;;19.90;99.90;;;;;;5076384;28;20439;-74
2022/07/26 06:59:36;;;;;;;12.68;3.75;;;19.80;99.90;;;;;;5079185;28;20029;-74
2022/07/26 07:02:02;;;;;;;10.52;3.03;;;19.80;99.90;;;;;;5080158;28;20036;-74
2022/07/26 07:04:30;;;;;;;6.18;2.58;;;19.80;99.90;;;;;;5080330;28;20032;-74
2022/07/26 07:07:01;;;;;;;10.23;3.53;;;19.90;99.90;;;;;;5080073;28;20400;-72
2022/07/26 07:09:28;;;;;;;7.05;2.42;;;19.90;99.90;;;;;;5089042;28;20028;-74
2022/07/26 07:11:54;;;;;;;14.52;3.33;;;20.20;99.90;;;;;;5085186;28;20039;-74
2022/07/26 07:14:19;;;;;;;5.53;2.30;;;20.30;99.90;;;;;;5075698;28;20013;-72
2022/07/26 07:16:45;;;;;;;11.93;2.85;;;20.30;99.90;;;;;;5075174;28;20084;-72
2022/07/26 07:19:11;;;;;;;8.48;2.25;;;20.30;99.90;;;;;;5075960;28;20056;-72
2022/07/26 07:21:38;;;;;;;9.35;3.15;;;20.60;99.90;;;;;;5077977;28;20059;-71
2022/07/26 07:24:04;;;;;;;10.40;3.10;;;20.90;99.90;;;;;;5084263;28;20032;-72
2022/07/26 07:26:30;;;;;;;17.10;3.78;;;20.90;99.90;;;;;;5079042;28;20024;-72
2022/07/26 07:28:56;;;;;;;8.30;2.40;;;21.00;99.90;;;;;;5078634;28;20443;-72
2022/07/26 07:31:23;;;;;;;9.48;2.38;;;21.10;99.90;;;;;;5076370;28;20017;-73
2022/07/26 07:33:49;;;;;;;11.38;2.70;;;21.10;99.90;;;;;;5075970;28;20385;-75
2022/07/26 07:36:15;;;;;;;18.58;3.30;;;21.20;99.90;;;;;;5080147;28;20028;-75
2022/07/26 07:38:41;;;;;;;15.45;2.75;;;21.00;99.90;;;;;;5080021;28;20029;-75
2022/07/26 07:41:06;;;;;;;11.32;2.80;;;20.90;99.90;;;;;;5075716;28;20116;-74
2022/07/26 07:43:32;;;;;;;7.90;2.42;;;20.80;99.90;;;;;;5076682;28;20052;-74
2022/07/26 07:45:58;;;;;;;7.07;1.80;;;20.70;99.90;;;;;;5077982;28;20029;-77
2022/07/26 07:48:24;;;;;;;10.90;2.17;;;20.50;99.90;;;;;;5076089;28;20025;-76
2022/07/26 07:50:50;;;;;;;6.90;2.42;;;20.30;99.90;;;;;;5078555;28;20036;-74
2022/07/26 07:53:15;;;;;;;10.27;2.80;;;20.30;99.90;;;;;;5080031;28;20029;-73
2022/07/26 07:55:41;;;;;;;21.25;3.35;;;20.40;99.90;;;;;;5077773;28;20028;-77
2022/07/26 07:58:07;;;;;;;18.02;2.75;;;20.60;99.90;;;;;;5083727;28;20034;-75
2022/07/26 08:00:33;;;;;;;5.78;2.38;;;21.10;99.90;;;;;;5082023;28;20042;-75
2022/07/26 08:02:59;;;;;;;4.40;2.30;;;21.40;99.90;;;;;;5085372;28;20032;-75
2022/07/26 08:05:24;;;;;;;10.27;1.63;;;21.50;99.90;;;;;;5080560;28;20393;-74
2022/07/26 08:07:50;;;;;;;11.07;2.92;;;21.40;99.90;;;;;;5080055;28;20029;-75
2022/07/26 08:10:16;;;;;;;9.63;2.63;;;21.40;99.90;;;;;;5077535;28;20031;-74
2022/07/26 08:12:43;;;;;;;8.05;2.17;;;21.40;99.90;;;;;;5087359;28;20040;-75
2022/07/26 08:15:09;;;;;;;13.48;2.50;;;21.60;99.90;;;;;;5086733;28;20040;-79
2022/07/26 08:17:35;;;;;;;7.10;2.03;;;21.60;99.90;;;;;;5077612;28;20031;-76
2022/07/26 08:20:01;;;;;;;6.43;1.80;;;21.70;99.90;;;;;;5074306;28;20036;-78
2022/07/26 08:22:27;;;;;;;9.02;1.90;;;21.40;99.90;;;;;;5078514;28;20029;-78
2022/07/26 08:24:53;;;;;;;8.88;1.88;;;21.10;99.90;;;;;;5083321;28;20028;-76
2022/07/26 08:27:19;;;;;;;6.88;1.85;;;21.10;99.90;;;;;;5080915;28;20023;-77
2022/07/26 08:29:45;;;;;;;3.58;1.80;;;21.30;99.90;;;;;;5078025;28;20070;-75
2022/07/26 08:32:11;;;;;;;9.13;2.50;;;21.40;99.90;;;;;;5074141;28;20686;-75
2022/07/26 08:34:37;;;;;;;9.25;2.45;;;21.50;99.90;;;;;;5078907;28;20075;-75
2022/07/26 08:37:03;;;;;;;7.50;1.92;;;21.60;99.90;;;;;;5076560;28;20028;-76
2022/07/26 08:39:31;;;;;;;7.22;1.98;;;21.60;99.90;;;;;;5075028;28;20033;-75
2022/07/26 08:41:57;;;;;;;7.32;1.98;;;21.70;99.90;;;;;;5079056;28;20171;-76
2022/07/26 08:44:26;;;;;;;6.97;1.50;;;21.90;99.90;;;;;;5080635;28;20524;-76
2022/07/26 08:46:52;;;;;;;8.55;2.20;;;22.00;99.90;;;;;;5088815;28;20042;-76
2022/07/26 08:49:17;;;;;;;6.30;2.53;;;22.20;99.90;;;;;;5081017;28;20462;-75
2022/07/26 08:51:44;;;;;;;8.52;2.38;;;22.40;99.90;;;;;;5079335;28;20042;-76
2022/07/26 08:54:12;;;;;;;4.35;1.65;;;22.70;99.90;;;;;;5079276;28;20473;-75
2022/07/26 08:56:48;;;;;;;5.97;2.33;;;22.60;99.90;;;;;;5080782;28;20027;-77
2022/07/26 08:59:16;;;;;;;5.40;1.60;;;22.70;99.90;;;;;;5079939;28;20021;-76
2022/07/26 09:01:56;;;;;;;5.90;2.30;;;22.60;99.90;;;;;;5082733;28;20028;-76
2022/07/26 09:04:31;;;;;;;8.35;1.95;;;22.40;99.90;;;;;;5084654;28;20024;-75
2022/07/26 09:07:03;;;;;;;9.57;2.42;;;22.40;99.90;;;;;;5089952;28;20047;-77
2022/07/26 09:09:32;;;;;;;7.10;2.17;;;22.30;99.90;;;;;;5078637;28;20369;-76
2022/07/26 09:11:58;;;;;;;9.77;2.38;;;22.20;99.90;;;;;;5079334;28;20028;-75
2022/07/26 09:14:36;;;;;;;6.53;2.35;;;22.00;99.90;;;;;;5081137;28;20031;-76
2022/07/26 09:17:02;;;;;;;8.68;2.20;;;22.10;99.90;;;;;;5082621;28;20024;-78
2022/07/26 09:19:28;;;;;;;8.68;2.13;;;22.00;99.90;;;;;;5080998;28;20618;-76
2022/07/26 09:21:56;;;;;;;8.43;2.17;;;22.00;99.90;;;;;;5082801;28;20032;-77
2022/07/26 09:24:34;;;;;;;6.28;1.90;;;22.00;99.90;;;;;;5080659;28;20035;-77
2022/07/26 09:27:02;;;;;;;13.10;2.70;;;22.10;99.90;;;;;;5072606;28;20113;-77
2022/07/26 09:29:28;;;;;;;5.72;1.83;;;22.20;99.90;;;;;;5083299;28;20028;-78
2022/07/26 09:32:16;;;;;;;4.97;1.60;;;22.20;99.90;;;;;;5078966;28;20063;-76
2022/07/26 09:34:49;;;;;;;5.53;1.75;;;22.10;99.90;;;;;;5092919;28;20024;-78
2022/07/26 09:37:16;;;;;;;9.88;2.47;;;22.10;99.90;;;;;;5077109;28;20024;-77
2022/07/26 09:40:10;;;;;;;8.93;1.92;;;22.30;99.90;;;;;;5079921;28;20029;-75
2022/07/26 09:42:36;;;;;;;9.50;2.15;;;22.40;99.90;;;;;;5080898;28;20071;-75
2022/07/26 09:45:13;;;;;;;4.35;1.63;;;22.40;99.90;;;;;;5079275;28;20028;-75
2022/07/26 09:47:39;;;;;;;5.22;2.25;;;22.30;99.90;;;;;;5085428;28;20033;-74
2022/07/26 09:50:16;;;;;;;23.77;3.00;;;22.40;99.90;;;;;;5086655;28;20112;-75
2022/07/26 09:53:10;;;;;;;9.10;2.38;;;22.60;99.90;;;;;;5077666;28;20408;-75
2022/07/26 09:55:55;;;;;;;7.25;2.20;;;22.90;99.90;;;;;;5080732;28;20115;-74
2022/07/26 09:58:21;;;;;;;11.85;2.08;;;22.90;99.90;;;;;;5080499;28;20357;-74
2022/07/26 10:00:47;;;;;;;5.40;1.65;;;22.90;99.90;;;;;;5080096;28;20052;-74
2022/07/26 10:03:13;;;;;;;3.42;1.50;;;23.00;99.90;;;;;;5078546;28;20025;-75
2022/07/26 10:05:39;;;;;;;7.82;1.70;;;23.00;99.90;;;;;;5080796;28;20028;-74
2022/07/26 10:08:06;;;;;;;2.53;1.42;;;22.90;99.90;;;;;;5083050;28;20021;-74
2022/07/26 10:10:38;;;;;;;4.53;2.00;;;22.90;99.90;;;;;;5087109;28;20032;-74
2022/07/26 10:13:06;;;;;;;3.53;1.45;;;23.00;99.90;;;;;;5077942;28;20086;-74
2022/07/26 10:15:47;;;;;;;8.93;1.95;;;23.30;99.90;;;;;;5080274;28;20097;-74
2022/07/26 10:18:37;;;;;;;4.75;2.08;;;23.30;99.80;;;;;;5080605;28;20055;-74
2022/07/26 10:21:22;;;;;;;5.47;2.38;;;23.30;99.40;;;;;;5078164;28;20503;-73
2022/07/26 10:23:55;;;;;;;6.75;1.88;;;23.60;99.70;;;;;;5078547;28;20028;-73
2022/07/26 10:26:30;;;;;;;7.00;1.60;;;23.60;99.50;;;;;;5077725;28;20028;-74
2022/07/26 10:29:15;;;;;;;4.70;2.17;;;23.60;99.40;;;;;;5080474;28;20038;-73
2022/07/26 10:32:07;;;;;;;4.35;1.63;;;23.70;99.20;;;;;;5093005;28;20020;-73
2022/07/26 10:34:34;;;;;;;3.83;1.40;;;23.80;98.90;;;;;;5077887;28;20025;-73
2022/07/26 10:37:03;;;;;;;2.92;1.80;;;23.70;98.80;;;;;;5082101;28;20032;-74
2022/07/26 10:39:28;;;;;;;7.13;2.05;;;23.80;99.10;;;;;;5089814;28;20032;-74
2022/07/26 10:42:02;;;;;;;9.80;2.70;;;23.80;98.80;;;;;;5079718;28;20078;-74
2022/07/26 10:44:33;;;;;;;5.07;1.63;;;24.00;98.70;;;;;;5078537;28;20028;-75
2022/07/26 10:47:07;;;;;;;7.78;1.75;;;24.20;98.10;;;;;;5078336;28;20035;-74
2022/07/26 10:49:41;;;;;;;6.05;1.40;;;24.30;97.30;;;;;;5085608;28;20425;-74
2022/07/26 10:52:56;;;;;;;6.20;1.80;;;24.20;97.20;;;;;;5090392;28;20044;-74
2022/07/26 10:55:21;;;;;;;5.97;1.50;;;24.50;97.80;;;;;;5065929;28;20037;-74
2022/07/26 10:57:48;;;;;;;4.57;1.70;;;25.10;96.70;;;;;;5081003;28;20036;-74
2022/07/26 11:00:22;;;;;;;2.83;1.25;;;25.10;95.60;;;;;;5076257;28;20028;-75
2022/07/26 11:02:55;;;;;;;7.82;1.77;;;24.60;95.60;;;;;;5079235;28;20110;-74
2022/07/26 11:05:27;;;;;;;7.00;2.08;;;24.10;96.40;;;;;;5079159;28;20025;-75
2022/07/26 11:07:57;;;;;;;3.95;1.40;;;24.00;96.80;;;;;;5082080;28;20032;-74
2022/07/26 11:10:32;;;;;;;4.38;1.20;;;24.40;96.40;;;;;;5079361;28;21097;-75
2022/07/26 11:13:13;;;;;;;4.32;1.75;;;24.50;96.10;;;;;;5076308;28;20033;-74
2022/07/26 11:15:43;;;;;;;6.72;1.77;;;24.70;95.80;;;;;;5074959;28;20598;-74
2022/07/26 11:18:31;;;;;;;4.72;1.67;;;24.90;95.20;;;;;;5075705;28;20496;-74
2022/07/26 11:21:10;;;;;;;3.47;1.40;;;25.10;95.00;;;;;;5074597;28;20042;-75
2022/07/26 11:23:38;;;;;;;5.22;1.55;;;25.00;95.10;;;;;;5086805;28;20040;-74
2022/07/26 11:26:10;;;;;;;7.43;1.50;;;25.10;94.20;;;;;;5078369;28;20075;-76
2022/07/26 11:28:43;;;;;;;6.03;1.50;;;25.10;94.80;;;;;;5106009;28;20032;-75
2022/07/26 11:31:08;;;;;;;4.40;1.42;;;24.70;94.50;;;;;;5076074;28;20028;-75
2022/07/26 11:33:41;;;;;;;6.07;1.70;;;24.40;94.90;;;;;;5091300;28;20020;-75
2022/07/26 11:36:08;;;;;;;5.40;1.67;;;24.20;94.70;;;;;;5078997;28;20389;-74
2022/07/26 11:38:46;;;;;;;4.05;1.75;;;24.50;94.90;;;;;;5081385;28;20024;-74
2022/07/26 11:41:14;;;;;;;6.20;1.60;;;24.60;94.30;;;;;;5093103;28;20024;-74
2022/07/26 11:43:40;;;;;;;4.60;1.33;;;24.40;94.50;;;;;;5085265;28;20024;-75
2022/07/26 11:46:06;;;;;;;8.93;2.05;;;24.60;94.30;;;;;;5084830;28;20051;-76
2022/07/26 11:48:32;;;;;;;8.43;1.70;;;24.80;94.20;;;;;;5092418;28;20111;-74
2022/07/26 11:51:16;;;;;;;3.90;1.65;;;24.70;93.50;;;;;;5079471;28;20102;-75
2022/07/26 11:53:42;;;;;;;3.63;1.40;;;24.80;93.40;;;;;;5092312;28;20028;-75
2022/07/26 11:56:22;;;;;;;9.40;1.50;;;24.80;93.70;;;;;;5090381;28;20037;-75
2022/07/26 11:58:51;;;;;;;5.07;1.70;;;25.00;93.00;;;;;;5093806;28;20031;-74
2022/07/26 12:01:19;;;;;;;4.10;1.10;;;25.00;92.50;;;;;;5088433;28;20039;-75
2022/07/26 12:03:47;;;;;;;8.15;2.15;;;25.00;91.90;;;;;;5088831;28;20472;-74
2022/07/26 12:06:16;;;;;;;5.72;1.25;;;25.20;92.90;;;;;;5096700;28;20093;-75
2022/07/26 12:08:49;;;;;;;5.28;1.48;;;25.20;92.20;;;;;;5093839;28;20023;-74
2022/07/26 12:11:16;;;;;;;4.03;1.05;;;25.40;91.70;;;;;;5087964;28;20047;-75
2022/07/26 12:14:00;;;;;;;5.72;2.10;;;25.30;90.80;;;;;;5077494;28;20082;-75
2022/07/26 12:16:39;;;;;;;6.20;1.60;;;25.30;90.90;;;;;;5080642;28;20031;-75
2022/07/26 12:19:06;;;;;;;5.38;1.30;;;25.40;90.80;;;;;;5100978;28;20026;-75
2022/07/26 12:21:44;;;;;;;4.68;1.83;;;25.20;90.70;;;;;;5099511;28;20400;-76
2022/07/26 12:24:12;;;;;;;9.55;2.00;;;25.20;90.80;;;;;;5099328;28;20032;-75
2022/07/26 12:26:39;;;;;;;5.28;1.60;;;25.30;90.90;;;;;;5086429;28;20024;-74
2022/07/26 12:29:23;;;;;;;3.13;1.33;;;25.20;90.30;;;;;;5083346;28;20128;-74
2022/07/26 12:32:15;;;;;;;7.35;1.55;;;25.30;90.40;;;;;;5099105;28;20020;-75
2022/07/26 12:34:54;;;;;;;5.68;1.45;;;25.60;90.40;;;;;;5086295;28;20560;-76
2022/07/26 12:37:20;;;;;;;5.93;1.42;;;25.80;88.80;;;;;;5091432;28;20043;-76
2022/07/26 12:40:05;;;;;;;5.72;1.30;;;25.80;88.10;;;;;;5095369;28;20028;-76
2022/07/26 12:42:33;;;;;;;8.13;2.13;;;25.90;87.30;;;;;;5098396;28;20081;-75
2022/07/26 12:45:00;;;;;;;3.63;1.35;;;26.10;87.70;;;;;;5089542;28;20076;-75
2022/07/26 12:47:27;;;;;;;4.07;1.65;;;26.20;85.70;;;;;;5088951;28;20034;-74
2022/07/26 12:49:53;;;;;;;6.00;1.10;;;25.90;84.60;;;;;;5088070;28;20025;-74
2022/07/26 12:52:21;;;;;;;5.32;1.38;;;26.00;85.70;;;;;;5088481;28;20083;-76
2022/07/26 12:54:51;;;;;;;4.85;1.35;;;26.10;83.30;;;;;;5091847;28;20024;-75